Time;durP1;ratioP1;P1;durP2;ratioP2;P2;SDS_P1;SDS_P2;PMS_P1;PMS_P2;Temp;Humidity;BMP_temperature;BMP_pressure;BME280_temperature;BME280_humidity;BME280_pressure;Samples;Min_cycle;Max_cycle;Signal;HPM_P1;HPM_P2
2023/10/13 00:00:36;;;;;;;17.43;15.20;;;;;;;14.06;100.00;100563.53;5076528;28;20190;-75
2023/10/13 00:03:06;;;;;;;23.07;18.37;;;;;;;14.12;100.00;100569.00;5077457;28;20190;-76
2023/10/13 00:05:37;;;;;;;21.30;15.53;;;;;;;14.11;100.00;100566.47;5076318;28;20256;-75
2023/10/13 00:08:07;;;;;;;17.77;14.77;;;;;;;14.10;100.00;100571.06;5076354;28;20256;-75
2023/10/13 00:10:35;;;;;;;18.43;14.77;;;;;;;14.10;100.00;100567.53;5076256;28;20240;-76
2023/10/13 00:13:11;;;;;;;19.03;15.70;;;;;;;14.10;100.00;100564.84;5076208;28;20205;-75
2023/10/13 00:15:46;;;;;;;17.07;14.13;;;;;;;14.12;100.00;100565.47;5076105;28;20320;-74
2023/10/13 00:18:14;;;;;;;19.40;15.47;;;;;;;14.14;100.00;100560.75;5075767;28;20222;-75
2023/10/13 00:20:49;;;;;;;20.90;16.47;;;;;;;14.15;100.00;100562.41;5075739;28;20742;-75
2023/10/13 00:23:20;;;;;;;16.87;13.10;;;;;;;14.15;100.00;100562.41;5076038;28;20243;-75
2023/10/13 00:25:58;;;;;;;17.50;13.30;;;;;;;14.16;100.00;100564.06;5075621;28;20236;-76
2023/10/13 00:28:35;;;;;;;17.40;14.47;;;;;;;14.18;100.00;100562.00;5079527;28;20186;-75
2023/10/13 00:31:10;;;;;;;17.73;13.93;;;;;;;14.17;100.00;100554.97;5076016;28;20197;-75
2023/10/13 00:33:41;;;;;;;19.63;13.47;;;;;;;14.18;100.00;100551.25;5075880;28;20193;-75
2023/10/13 00:36:19;;;;;;;22.23;16.87;;;;;;;14.23;100.00;100560.44;5075816;28;20189;-76
2023/10/13 00:38:49;;;;;;;22.53;16.73;;;;;;;14.26;100.00;100564.63;5075363;28;20657;-76
2023/10/13 00:41:33;;;;;;;21.90;15.50;;;;;;;14.26;100.00;100559.22;5075718;28;20194;-76
2023/10/13 00:44:08;;;;;;;18.47;14.10;;;;;;;14.27;100.00;100555.53;5074942;28;20264;-76
2023/10/13 00:46:38;;;;;;;18.30;13.97;;;;;;;14.27;100.00;100558.22;5075290;28;20559;-76
2023/10/13 00:49:09;;;;;;;17.93;14.80;;;;;;;14.28;100.00;100551.78;5075368;28;20186;-75
2023/10/13 00:51:41;;;;;;;19.93;15.53;;;;;;;14.33;100.00;100549.38;5076248;28;20198;-75
2023/10/13 00:54:11;;;;;;;19.47;14.10;;;;;;;14.31;100.00;100542.50;5075096;28;20734;-75
2023/10/13 00:56:46;;;;;;;14.17;12.67;;;;;;;14.32;100.00;100538.78;5075404;28;20232;-76
2023/10/13 00:59:15;;;;;;;17.80;14.00;;;;;;;14.33;100.00;100533.22;5075347;28;20209;-76
2023/10/13 01:01:43;;;;;;;21.07;13.23;;;;;;;14.32;100.00;100534.22;5075336;28;20263;-76
2023/10/13 01:04:14;;;;;;;19.77;14.53;;;;;;;14.36;100.00;100532.03;5075220;28;20302;-76
2023/10/13 01:06:45;;;;;;;20.30;15.83;;;;;;;14.39;100.00;100534.34;5075208;28;20247;-76
2023/10/13 01:09:16;;;;;;;16.37;13.00;;;;;;;14.40;100.00;100536.00;5075215;28;20235;-76
2023/10/13 01:11:46;;;;;;;18.60;14.27;;;;;;;14.42;100.00;100525.88;5075955;28;20189;-76
2023/10/13 01:14:17;;;;;;;18.93;14.40;;;;;;;14.43;100.00;100522.16;5074955;28;20225;-76
2023/10/13 01:16:45;;;;;;;22.07;14.57;;;;;;;14.44;100.00;100524.69;5074752;28;20186;-76
2023/10/13 01:19:18;;;;;;;19.50;13.83;;;;;;;14.46;100.00;100519.91;5074907;28;20221;-76
2023/10/13 01:21:48;;;;;;;19.50;14.43;;;;;;;14.49;100.00;100519.53;5074635;28;20644;-76
2023/10/13 01:24:23;;;;;;;25.53;16.67;;;;;;;14.54;100.00;100519.81;5074622;28;20328;-76
2023/10/13 01:26:53;;;;;;;21.37;15.53;;;;;;;14.55;100.00;100523.34;5074805;28;20193;-76
2023/10/13 01:29:26;;;;;;;23.57;16.80;;;;;;;14.59;100.00;100514.66;5074711;28;20201;-76
2023/10/13 01:31:53;;;;;;;19.80;15.87;;;;;;;14.62;100.00;100510.78;5074735;28;20225;-76
2023/10/13 01:34:22;;;;;;;20.60;16.23;;;;;;;14.64;100.00;100514.94;5074557;28;20221;-76
2023/10/13 01:36:51;;;;;;;19.60;14.33;;;;;;;14.61;100.00;100515.34;5074233;28;20694;-76
2023/10/13 01:39:26;;;;;;;22.87;16.00;;;;;;;14.64;100.00;100504.16;5074138;28;20597;-76
2023/10/13 01:41:55;;;;;;;23.17;16.70;;;;;;;14.68;100.00;100508.16;5075347;28;20193;-76
2023/10/13 01:44:28;;;;;;;26.33;17.23;;;;;;;14.68;100.00;100505.47;5074369;28;20232;-75
2023/10/13 01:46:55;;;;;;;22.97;16.03;;;;;;;14.68;100.00;100501.91;5074487;28;20218;-75
2023/10/13 01:49:24;;;;;;;23.97;16.53;;;;;;;14.72;100.00;100503.22;5074204;28;20220;-76
2023/10/13 01:51:52;;;;;;;24.57;16.83;;;;;;;14.73;100.00;100497.63;5074349;28;20194;-76
2023/10/13 01:54:22;;;;;;;27.37;17.20;;;;;;;14.76;100.00;100485.59;5074017;28;20260;-75
2023/10/13 01:56:50;;;;;;;23.73;16.83;;;;;;;14.76;100.00;100498.28;5073825;28;20276;-76
2023/10/13 01:59:19;;;;;;;19.67;16.37;;;;;;;14.73;100.00;100492.22;5074074;28;20221;-75
2023/10/13 02:01:46;;;;;;;25.87;17.67;;;;;;;14.76;100.00;100492.88;5074163;28;20259;-75
2023/10/13 02:04:21;;;;;;;25.17;17.87;;;;;;;14.76;100.00;100479.41;5074005;28;20232;-75
2023/10/13 02:06:48;;;;;;;26.17;18.53;;;;;;;14.76;100.00;100485.59;5074206;28;20261;-75
2023/10/13 02:09:25;;;;;;;22.53;17.67;;;;;;;14.76;100.00;100484.78;5074040;28;20296;-76
2023/10/13 02:11:54;;;;;;;25.10;18.50;;;;;;;14.77;100.00;100476.50;5073964;28;20212;-76
2023/10/13 02:14:25;;;;;;;23.43;18.07;;;;;;;14.76;100.00;100474.03;5073507;28;20257;-76
2023/10/13 02:17:12;;;;;;;24.13;18.77;;;;;;;14.76;100.00;100472.13;5073640;28;20193;-76
2023/10/13 02:19:44;;;;;;;22.90;17.60;;;;;;;14.73;100.00;100469.03;5073778;28;20279;-76
2023/10/13 02:22:28;;;;;;;22.33;15.93;;;;;;;14.71;100.00;100472.72;5073870;28;20251;-76
2023/10/13 02:25:01;;;;;;;20.37;15.80;;;;;;;14.71;100.00;100471.88;5073736;28;20248;-75
2023/10/13 02:27:40;;;;;;;19.63;14.27;;;;;;;14.69;100.00;100471.25;5073754;28;20264;-75
2023/10/13 02:30:14;;;;;;;16.17;13.77;;;;;;;14.69;100.00;100464.00;5073815;28;20346;-76
2023/10/13 02:32:44;;;;;;;21.77;17.23;;;;;;;14.71;100.00;100463.81;5073709;28;20197;-76
2023/10/13 02:35:15;;;;;;;22.77;17.23;;;;;;;14.71;100.00;100470.03;5073558;28;20229;-76
2023/10/13 02:37:47;;;;;;;22.07;17.37;;;;;;;14.71;100.00;100459.25;5073661;28;20264;-76
2023/10/13 02:40:15;;;;;;;27.17;19.33;;;;;;;14.73;100.00;100469.03;5073548;28;20249;-76
2023/10/13 02:42:45;;;;;;;27.00;18.90;;;;;;;14.73;100.00;100463.63;5073243;28;20212;-76
2023/10/13 02:45:13;;;;;;;26.70;19.53;;;;;;;14.73;100.00;100459.88;5073441;28;20252;-76
2023/10/13 02:47:43;;;;;;;23.43;18.40;;;;;;;14.75;100.00;100448.09;5073460;28;20304;-76
2023/10/13 02:50:12;;;;;;;22.13;18.23;;;;;;;14.74;100.00;100452.63;5073197;28;20221;-75
2023/10/13 02:52:41;;;;;;;24.37;18.23;;;;;;;14.73;100.00;100441.03;5073496;28;20259;-75
2023/10/13 02:55:10;;;;;;;18.17;16.27;;;;;;;14.73;100.00;100442.06;5073378;28;20229;-74
2023/10/13 02:57:40;;;;;;;20.13;17.60;;;;;;;14.73;100.00;100435.63;5073529;28;20209;-74
2023/10/13 03:00:12;;;;;;;20.27;18.00;;;;;;;14.73;100.00;100437.50;5073347;28;20312;-74
2023/10/13 03:02:47;;;;;;;21.77;17.50;;;;;;;14.74;100.00;100439.16;5073506;28;20281;-76
2023/10/13 03:05:16;;;;;;;19.17;16.47;;;;;;;14.74;100.00;100433.78;5073395;28;20228;-76
2023/10/13 03:07:45;;;;;;;20.83;17.00;;;;;;;14.73;100.00;100422.16;5076745;28;20209;-76
2023/10/13 03:10:15;;;;;;;23.23;17.20;;;;;;;14.75;100.00;100423.84;5084540;28;20211;-74
2023/10/13 03:12:48;;;;;;;22.87;18.17;;;;;;;14.76;100.00;100418.22;5086078;28;20220;-75
2023/10/13 03:15:17;;;;;;;22.33;17.10;;;;;;;14.76;100.00;100410.16;5082089;28;20257;-74
2023/10/13 03:17:47;;;;;;;22.20;17.43;;;;;;;14.78;100.00;100408.09;5086406;28;20209;-75
2023/10/13 03:20:22;;;;;;;25.47;18.20;;;;;;;14.82;100.00;100413.94;5086933;28;20297;-74
2023/10/13 03:22:53;;;;;;;20.77;18.43;;;;;;;14.82;100.00;100403.16;5089681;28;20197;-74
2023/10/13 03:25:23;;;;;;;21.90;17.50;;;;;;;14.83;100.00;100404.84;5077922;28;20228;-75
2023/10/13 03:28:04;;;;;;;24.63;17.67;;;;;;;14.90;100.00;100403.00;5077158;28;20190;-75
2023/10/13 03:30:38;;;;;;;19.70;17.47;;;;;;;14.89;100.00;100393.25;5077067;28;20247;-75
2023/10/13 03:33:09;;;;;;;20.47;15.00;;;;;;;14.90;100.00;100389.53;5076991;28;20193;-75
2023/10/13 03:35:38;;;;;;;20.13;16.67;;;;;;;14.92;100.00;100392.88;5076555;28;20595;-76
2023/10/13 03:38:14;;;;;;;17.87;15.30;;;;;;;14.91;100.00;100396.59;5076903;28;20278;-76
2023/10/13 03:40:48;;;;;;;16.67;14.87;;;;;;;14.90;100.00;100389.53;5076807;28;20260;-76
2023/10/13 03:43:21;;;;;;;17.07;14.60;;;;;;;14.89;100.00;100390.56;5076798;28;20270;-76
2023/10/13 03:46:00;;;;;;;16.43;13.93;;;;;;;14.90;100.00;100397.59;5076693;28;20237;-76
2023/10/13 03:48:29;;;;;;;13.97;12.47;;;;;;;14.88;100.00;100380.81;5076752;28;20201;-76
2023/10/13 03:51:06;;;;;;;14.53;13.03;;;;;;;14.88;100.00;100380.81;5076251;28;20255;-76
2023/10/13 03:53:36;;;;;;;14.83;12.43;;;;;;;14.89;100.00;100377.09;5076637;28;20245;-76
2023/10/13 03:56:12;;;;;;;15.43;12.57;;;;;;;14.88;100.00;100370.03;5076453;28;20308;-76
2023/10/13 03:58:45;;;;;;;15.07;12.27;;;;;;;14.88;100.00;100364.63;5076525;28;20233;-76
2023/10/13 04:01:17;;;;;;;13.63;11.10;;;;;;;14.89;100.00;100371.69;5076390;28;20220;-76
2023/10/13 04:04:03;;;;;;;13.63;11.73;;;;;;;14.89;100.00;100355.53;5076348;28;20190;-76
2023/10/13 04:07:12;;;;;;;12.47;10.93;;;;;;;14.90;100.00;100367.94;5076119;28;20655;-76
2023/10/13 04:15:17;;;;;;;15.23;11.13;;;;;;;14.92;100.00;100360.53;5076144;28;20226;-76
2023/10/13 04:17:48;;;;;;;14.73;11.27;;;;;;;14.92;100.00;100355.13;5075285;28;20208;-76
2023/10/13 04:23:26;;;;;;;18.10;11.03;;;;;;;14.93;100.00;100346.81;5075744;28;20597;-76
2023/10/13 04:26:09;;;;;;;13.50;10.50;;;;;;;14.95;100.00;100349.34;5075981;28;20306;-76
2023/10/13 04:28:50;;;;;;;15.27;10.83;;;;;;;14.95;100.00;100354.72;5075972;28;20289;-76
2023/10/13 04:34:15;;;;;;;13.67;10.67;;;;;;;14.95;100.00;100349.34;5075860;28;20229;-76
2023/10/13 04:36:45;;;;;;;12.27;10.93;;;;;;;14.94;100.00;100342.28;5075867;28;20271;-75
2023/10/13 04:39:29;;;;;;;11.33;10.13;;;;;;;14.94;100.00;100336.88;5075768;28;20244;-76
2023/10/13 04:41:57;;;;;;;17.73;10.97;;;;;;;14.94;100.00;100326.94;5076037;28;20292;-76
2023/10/13 04:47:21;;;;;;;14.83;10.57;;;;;;;14.94;100.00;100318.00;5075323;28;20281;-75
2023/10/13 04:49:51;;;;;;;13.87;10.77;;;;;;;14.92;100.00;100309.31;5075343;28;20308;-77
2023/10/13 04:55:36;;;;;;;12.67;10.63;;;;;;;14.92;100.00;100306.63;5075405;28;20229;-77
2023/10/13 04:58:14;;;;;;;13.43;10.43;;;;;;;14.91;100.00;100307.63;5075375;28;20206;-77
2023/10/13 05:46:20;;;;;;;11.73;10.50;;;;;;;14.97;100.00;100272.63;5074152;28;20756;-76
2023/10/13 05:49:07;;;;;;;11.87;10.10;;;;;;;14.98;100.00;100268.91;5073964;28;20679;-76
2023/10/13 05:51:43;;;;;;;13.43;10.23;;;;;;;14.99;100.00;100262.50;5073964;28;20210;-76
2023/10/13 06:30:17;;;;;;;12.17;9.53;;;;;;;15.14;100.00;100248.84;5073389;28;20604;-76
2023/10/13 06:32:46;;;;;;;10.80;9.70;;;;;;;15.15;100.00;100242.44;5073345;28;20562;-76
2023/10/13 06:35:22;;;;;;;12.40;9.10;;;;;;;15.18;100.00;100250.09;5073548;28;20236;-76
2023/10/13 06:37:51;;;;;;;10.77;8.67;;;;;;;15.18;100.00;100239.31;5073355;28;20194;-76
2023/10/13 06:40:25;;;;;;;15.67;9.57;;;;;;;15.19;100.00;100238.31;5073645;28;20209;-75
2023/10/13 06:43:11;;;;;;;13.73;9.33;;;;;;;15.18;100.00;100242.84;5073161;28;20219;-75
2023/10/13 06:45:41;;;;;;;12.97;10.27;;;;;;;15.22;100.00;100240.59;5073406;28;20225;-76
2023/10/13 06:48:13;;;;;;;12.07;9.97;;;;;;;15.22;100.00;100233.34;5073475;28;20205;-75
2023/10/13 06:50:52;;;;;;;11.00;8.77;;;;;;;15.21;100.00;100223.56;5073078;28;20701;-76
2023/10/13 06:53:21;;;;;;;11.43;9.73;;;;;;;15.22;100.00;100216.31;5073520;28;20619;-76
2023/10/13 06:55:52;;;;;;;11.67;10.10;;;;;;;15.25;100.00;100237.47;5073374;28;20306;-76
2023/10/13 06:58:23;;;;;;;12.13;10.00;;;;;;;15.24;100.00;100233.94;5073477;28;20217;-76
2023/10/13 07:00:55;;;;;;;11.43;10.13;;;;;;;15.24;100.00;100231.25;5073325;28;20277;-76
2023/10/13 07:03:24;;;;;;;14.43;10.87;;;;;;;15.24;100.00;100217.78;5073079;28;20562;-76
2023/10/13 07:05:53;;;;;;;13.27;10.47;;;;;;;15.27;100.00;100223.81;5073251;28;20320;-76
2023/10/13 07:08:23;;;;;;;12.97;10.40;;;;;;;15.26;100.00;100217.59;5073332;28;20209;-76
2023/10/13 07:11:02;;;;;;;14.07;10.83;;;;;;;15.27;100.00;100208.47;5072991;28;20368;-76
2023/10/13 07:13:30;;;;;;;13.03;11.60;;;;;;;15.30;100.00;100220.69;5073327;28;20273;-76
2023/10/13 07:16:05;;;;;;;12.80;10.73;;;;;;;15.30;100.00;100218.84;5073144;28;20279;-76
2023/10/13 07:18:42;;;;;;;17.33;12.03;;;;;;;15.33;100.00;100213.03;5073551;28;20232;-76
2023/10/13 07:21:10;;;;;;;18.57;11.27;;;;;;;15.32;100.00;100205.97;5072877;28;20277;-76
2023/10/13 07:23:39;;;;;;;13.90;11.10;;;;;;;15.33;100.00;100202.25;5073187;28;20255;-76
2023/10/13 07:26:08;;;;;;;17.23;11.60;;;;;;;15.34;100.00;100187.75;5073064;28;20316;-76
2023/10/13 07:28:43;;;;;;;14.83;11.67;;;;;;;15.35;100.00;100194.78;5072840;28;20581;-78
2023/10/13 07:31:16;;;;;;;16.00;11.53;;;;;;;15.39;100.00;100193.34;5072903;28;20713;-77
2023/10/13 07:33:44;;;;;;;14.03;11.07;;;;;;;15.38;100.00;100188.97;5072880;28;20651;-78
2023/10/13 07:36:17;;;;;;;13.67;12.03;;;;;;;15.40;100.00;100168.03;5072764;28;20249;-78
2023/10/13 07:38:59;;;;;;;14.77;11.03;;;;;;;15.44;100.00;100171.16;5073074;28;20276;-78
2023/10/13 07:41:54;;;;;;;14.60;10.87;;;;;;;15.42;100.00;100168.66;5072770;28;20224;-78
2023/10/13 07:44:28;;;;;;;12.90;11.57;;;;;;;15.47;100.00;100163.47;5072966;28;20285;-78
2023/10/13 07:46:59;;;;;;;15.60;11.60;;;;;;;15.46;100.00;100164.50;5072866;28;20669;-77
2023/10/13 07:49:31;;;;;;;15.57;12.40;;;;;;;15.51;100.00;100145.03;5073039;28;20218;-78
2023/10/13 07:52:14;;;;;;;14.23;11.30;;;;;;;15.49;100.00;100147.94;5073014;28;20646;-78
2023/10/13 07:54:47;;;;;;;14.07;12.40;;;;;;;15.52;100.00;100131.31;5075480;28;20733;-78
2023/10/13 07:57:17;;;;;;;15.03;12.50;;;;;;;15.55;100.00;100141.69;5076664;28;20211;-78
2023/10/13 07:59:51;;;;;;;14.30;12.60;;;;;;;15.55;100.00;100122.81;5076302;28;20237;-77
2023/10/13 08:05:24;;;;;;;16.07;12.13;;;;;;;15.58;100.00;100124.28;5076105;28;20243;-78
2023/10/13 08:07:53;;;;;;;13.93;12.07;;;;;;;15.59;100.00;100125.94;5076407;28;20185;-77
2023/10/13 08:10:29;;;;;;;14.90;12.53;;;;;;;15.62;100.00;100128.22;5076396;28;20205;-77
2023/10/13 08:12:58;;;;;;;16.30;12.27;;;;;;;15.65;100.00;100120.53;5076016;28;20181;-76
2023/10/13 08:15:33;;;;;;;13.40;12.00;;;;;;;15.64;100.00;100113.50;5076191;28;20229;-77
2023/10/13 08:18:17;;;;;;;12.53;9.60;;;;;;;15.66;100.00;100115.97;5076275;28;20226;-77
2023/10/13 08:20:47;;;;;;;13.23;11.23;;;;;;;15.69;100.00;100121.78;5075854;28;20632;-76
2023/10/13 08:23:15;;;;;;;13.93;11.67;;;;;;;15.71;100.00;100108.94;5075769;28;20591;-77
2023/10/13 08:31:26;;;;;;;12.47;9.27;;;;;;;15.86;100.00;100118.66;5075678;28;20221;-77
2023/10/13 08:34:06;;;;;;;12.50;11.20;;;;;;;15.97;100.00;100123.41;5076007;28;20188;-77
2023/10/13 08:36:38;;;;;;;13.57;8.60;;;;;;;16.13;100.00;100123.78;5076242;28;20285;-77
2023/10/13 08:39:57;;;;;;;10.67;8.33;;;;;;;16.15;100.00;100124.44;5075642;28;20660;-78
2023/10/13 08:42:11;;;;;;;10.27;8.73;;;;;;;16.19;100.00;100130.25;5075278;28;20315;-78
2023/10/13 08:44:47;;;;;;;9.03;7.40;;;;;;;16.28;100.00;100117.31;5075466;28;20286;-77
2023/10/13 08:47:21;;;;;;;8.53;7.67;;;;;;;16.26;100.00;100111.31;5076383;28;20190;-77
2023/10/13 08:49:56;;;;;;;13.17;8.40;;;;;;;16.29;100.00;100108.19;5079444;28;20241;-76
2023/10/13 08:52:46;;;;;;;8.00;7.17;;;;;;;16.29;100.00;100100.09;5076252;28;20635;-77
2023/10/13 08:58:03;;;;;;;8.57;7.43;;;;;;;16.45;100.00;100115.81;5074813;28;20205;-76
2023/10/13 09:03:38;;;;;;;10.73;7.47;;;;;;;16.52;100.00;100114.75;5074842;28;20707;-77
2023/10/13 09:06:14;;;;;;;7.80;7.00;;;;;;;16.61;100.00;100118.91;5075040;28;20230;-77
2023/10/13 09:09:04;;;;;;;8.53;7.20;;;;;;;16.67;100.00;100125.34;5074999;28;20667;-77
2023/10/13 09:11:48;;;;;;;7.83;6.97;;;;;;;16.66;100.00;100116.38;5075260;28;20186;-77
2023/10/13 09:17:09;;;;;;;8.07;7.03;;;;;;;16.67;100.00;100120.75;5074824;28;20655;-78
2023/10/13 09:19:48;;;;;;;8.83;6.50;;;;;;;16.67;100.00;100118.06;5075064;28;20194;-76
2023/10/13 09:22:35;;;;;;;7.13;6.47;;;;;;;16.73;100.00;100103.69;5074837;28;20231;-76
2023/10/13 09:25:05;;;;;;;9.67;6.37;;;;;;;16.72;100.00;100106.59;5074876;28;20229;-65
2023/10/13 09:27:37;;;;;;;7.20;6.50;;;;;;;16.80;100.00;100102.81;5074995;28;20255;-76
2023/10/13 09:30:09;;;;;;;9.13;6.80;;;;;;;16.76;100.00;100090.75;5074520;28;20636;-75
2023/10/13 09:32:46;;;;;;;9.37;6.40;;;;;;;16.76;100.00;100094.28;5074825;28;20189;-75
2023/10/13 09:35:18;;;;;;;8.77;6.37;;;;;;;16.89;100.00;100082.56;5074315;28;20224;-76
2023/10/13 09:37:50;;;;;;;8.67;6.10;;;;;;;16.88;100.00;100072.81;5074354;28;20222;-76
2023/10/13 09:40:25;;;;;;;8.57;6.40;;;;;;;16.90;100.00;100070.72;5074600;28;20194;-76
2023/10/13 09:42:55;;;;;;;11.33;6.00;;;;;;;16.94;100.00;100061.97;5074521;28;20213;-76
2023/10/13 09:45:38;;;;;;;9.47;6.00;;;;;;;16.96;100.00;100059.03;5074435;28;20336;-76
2023/10/13 09:48:16;;;;;;;7.30;5.93;;;;;;;16.97;100.00;100044.47;5075288;28;20217;-75
2023/10/13 09:50:48;;;;;;;10.13;6.10;;;;;;;16.98;100.00;100035.31;5073984;28;20337;-76
2023/10/13 09:53:18;;;;;;;9.40;6.40;;;;;;;16.95;100.00;100041.97;5074335;28;20190;-76
2023/10/13 09:55:52;;;;;;;7.57;5.80;;;;;;;16.95;100.00;100025.75;5074176;28;20256;-76
2023/10/13 09:58:28;;;;;;;7.23;5.90;;;;;;;16.96;100.00;100026.56;5074255;28;20193;-76
2023/10/13 10:01:07;;;;;;;7.30;5.20;;;;;;;16.99;100.00;100020.72;5074254;28;20193;-76
2023/10/13 10:03:50;;;;;;;8.87;5.80;;;;;;;17.02;100.00;100015.72;5074628;28;20209;-76
2023/10/13 10:06:28;;;;;;;8.40;6.43;;;;;;;17.03;100.00;100003.03;5074130;28;20189;-76
2023/10/13 10:09:12;;;;;;;7.63;5.97;;;;;;;17.10;100.00;100012.75;5074095;28;20193;-76
2023/10/13 10:12:22;;;;;;;10.93;6.00;;;;;;;17.12;100.00;100007.13;5073801;28;20653;-76
2023/10/13 10:15:28;;;;;;;11.80;6.10;;;;;;;17.20;100.00;100007.66;5053266;28;20317;-76
2023/10/13 10:17:56;;;;;;;7.53;5.93;;;;;;;17.27;100.00;99999.50;5073583;28;20192;-76
2023/10/13 10:20:42;;;;;;;10.03;5.63;;;;;;;17.27;100.00;99983.25;5074315;28;20270;-76
2023/10/13 10:23:19;;;;;;;6.17;5.17;;;;;;;17.46;100.00;99979.56;5073776;28;20279;-76
2023/10/13 10:25:51;;;;;;;11.73;5.37;;;;;;;17.49;100.00;99973.69;5073788;28;20227;-76
2023/10/13 10:28:20;;;;;;;7.53;5.17;;;;;;;17.62;100.00;99970.06;5073837;28;20190;-76
2023/10/13 10:30:49;;;;;;;9.20;5.73;;;;;;;17.63;100.00;99964.44;5073734;28;20213;-76
2023/10/13 10:33:18;;;;;;;7.80;5.23;;;;;;;17.63;100.00;99956.31;5073700;28;20208;-76
2023/10/13 10:35:48;;;;;;;7.47;5.17;;;;;;;17.74;100.00;99952.81;5073321;28;20256;-76
2023/10/13 10:38:24;;;;;;;7.93;4.90;;;;;;;17.71;100.00;99945.16;5073399;28;20743;-75
2023/10/13 10:40:58;;;;;;;7.10;4.87;;;;;;;17.87;100.00;99948.31;5073693;28;20189;-76
2023/10/13 10:43:41;;;;;;;7.97;5.57;;;;;;;17.87;100.00;99959.16;5073268;28;20209;-76
2023/10/13 10:46:11;;;;;;;10.73;5.60;;;;;;;17.98;100.00;99942.16;5073293;28;20663;-76
2023/10/13 10:48:44;;;;;;;11.43;5.50;;;;;;;18.06;100.00;99950.78;5073584;28;20189;-76
2023/10/13 10:51:21;;;;;;;11.03;5.73;;;;;;;18.06;100.00;99941.81;5073200;28;20217;-76
2023/10/13 10:53:51;;;;;;;8.43;5.47;;;;;;;18.18;100.00;99934.59;5073450;28;20255;-76
2023/10/13 10:56:25;;;;;;;8.37;5.83;;;;;;;18.18;100.00;99931.88;5073413;28;20300;-76
2023/10/13 10:58:59;;;;;;;9.20;5.10;;;;;;;18.21;100.00;99928.72;5073169;28;20704;-76
2023/10/13 11:01:38;;;;;;;9.77;6.13;;;;;;;18.28;100.00;99907.78;5073417;28;20250;-76
2023/10/13 11:04:14;;;;;;;11.33;5.60;;;;;;;18.48;100.00;99908.31;5072950;28;20233;-76
2023/10/13 11:06:54;;;;;;;10.37;5.60;;;;;;;18.64;100.00;99906.81;5073413;28;20193;-76
2023/10/13 11:09:36;;;;;;;10.90;5.70;;;;;;;18.67;100.00;99895.50;5073463;28;20231;-76
2023/10/13 11:12:16;;;;;;;11.13;5.67;;;;;;;18.83;97.94;99888.59;5073382;28;20247;-76
2023/10/13 11:14:50;;;;;;;11.20;5.90;;;;;;;18.92;97.45;99889.88;5073294;28;20229;-76
2023/10/13 11:17:26;;;;;;;11.03;6.20;;;;;;;19.04;95.60;99891.53;5073330;28;20248;-77
2023/10/13 11:19:55;;;;;;;8.10;5.73;;;;;;;19.33;91.77;99884.34;5072948;28;20607;-76
2023/10/13 11:22:32;;;;;;;13.30;5.60;;;;;;;19.39;91.71;99886.09;5073299;28;20660;-76
2023/10/13 11:25:09;;;;;;;14.63;6.20;;;;;;;19.57;91.19;99890.59;5072897;28;20691;-76
2023/10/13 11:27:55;;;;;;;12.17;5.80;;;;;;;19.82;87.18;99879.44;5075025;28;20189;-76
2023/10/13 11:30:40;;;;;;;11.10;6.10;;;;;;;19.85;88.46;99889.81;5077155;28;20186;-76
2023/10/13 11:33:11;;;;;;;10.17;5.63;;;;;;;20.08;87.67;99887.00;5077044;28;20185;-76
2023/10/13 11:35:55;;;;;;;9.97;5.40;;;;;;;20.06;87.01;99886.44;5076857;28;20304;-75
2023/10/13 11:38:28;;;;;;;8.63;5.97;;;;;;;20.10;85.88;99882.16;5077015;28;20197;-75
2023/10/13 11:41:14;;;;;;;15.83;6.27;;;;;;;20.08;86.70;99874.25;5077031;28;20190;-74
2023/10/13 11:49:19;;;;;;;13.43;7.30;;;;;;;20.24;85.80;99861.75;5077927;28;20217;-75
2023/10/13 11:51:49;;;;;;;12.00;6.33;;;;;;;20.34;85.19;99856.56;5078778;28;20217;-78
2023/10/13 11:54:19;;;;;;;14.70;7.47;;;;;;;20.28;86.15;99849.34;5078122;28;20217;-75
2023/10/13 11:56:49;;;;;;;11.60;6.07;;;;;;;20.36;84.80;99861.72;5076575;28;20239;-72
2023/10/13 11:59:19;;;;;;;10.17;6.10;;;;;;;20.53;83.33;99863.41;5076590;28;20236;-74
2023/10/13 12:04:40;;;;;;;10.93;6.43;;;;;;;20.71;81.32;99854.19;5045541;28;20237;-76
2023/10/13 12:07:17;;;;;;;11.67;5.60;;;;;;;20.84;79.81;99848.41;5076532;28;20189;-76
2023/10/13 12:10:03;;;;;;;15.57;6.67;;;;;;;20.89;79.06;99836.78;5076382;28;20229;-76
2023/10/13 12:12:40;;;;;;;12.10;6.07;;;;;;;20.96;78.55;99834.72;5076082;28;20229;-76
2023/10/13 12:15:14;;;;;;;14.77;5.83;;;;;;;21.06;77.71;99843.03;5075922;28;20271;-76
2023/10/13 12:17:44;;;;;;;13.73;6.03;;;;;;;21.19;77.04;99839.97;5075951;28;20585;-76
2023/10/13 12:20:24;;;;;;;14.87;6.30;;;;;;;21.20;76.39;99830.69;5075960;28;20658;-77
2023/10/13 12:22:55;;;;;;;12.27;6.27;;;;;;;21.28;76.77;99819.38;5075871;28;20648;-76
2023/10/13 12:25:44;;;;;;;12.30;5.90;;;;;;;21.40;75.97;99814.66;5075765;28;20761;-75
2023/10/13 12:28:18;;;;;;;17.83;5.20;;;;;;;21.46;75.36;99823.72;5076385;28;20552;-73
2023/10/13 12:30:52;;;;;;;16.17;7.10;;;;;;;21.41;75.88;99819.00;5076042;28;20225;-75
2023/10/13 12:33:25;;;;;;;14.13;7.10;;;;;;;21.43;76.12;99810.59;5075644;28;20281;-73
2023/10/13 12:36:06;;;;;;;16.83;6.43;;;;;;;21.54;75.55;99818.63;5075906;28;20287;-73
2023/10/13 12:38:51;;;;;;;13.37;6.03;;;;;;;21.64;75.81;99807.84;5075729;28;20190;-73
2023/10/13 12:49:57;;;;;;;14.20;6.60;;;;;;;21.65;72.32;99784.97;5075111;28;20701;-72
2023/10/13 12:52:26;;;;;;;17.90;6.73;;;;;;;21.61;72.97;99774.88;5075691;28;20228;-73
2023/10/13 12:55:05;;;;;;;12.53;5.67;;;;;;;21.57;72.39;99773.72;5075480;28;20308;-75
2023/10/13 12:57:42;;;;;;;9.83;5.90;;;;;;;21.48;72.46;99770.63;5075218;28;20681;-74
2023/10/13 13:00:20;;;;;;;14.93;6.40;;;;;;;21.44;71.92;99755.88;5075011;28;20193;-75
2023/10/13 13:02:55;;;;;;;15.37;6.17;;;;;;;21.36;73.18;99742.72;5075194;28;20276;-74
2023/10/13 13:05:28;;;;;;;13.40;6.43;;;;;;;21.33;72.57;99751.41;5075387;28;20290;-74
2023/10/13 13:07:57;;;;;;;12.53;5.90;;;;;;;21.30;72.71;99738.31;5074829;28;20573;-75
2023/10/13 13:10:38;;;;;;;13.87;5.90;;;;;;;21.30;71.92;99741.03;5075220;28;20212;-75
2023/10/13 13:13:07;;;;;;;11.73;5.93;;;;;;;21.27;71.65;99733.34;5075267;28;20193;-76
2023/10/13 13:15:35;;;;;;;10.87;6.23;;;;;;;21.35;71.71;99735.63;5074907;28;20713;-74
2023/10/13 13:18:11;;;;;;;12.20;6.77;;;;;;;21.27;71.90;99736.06;5075159;28;20244;-75
2023/10/13 13:20:52;;;;;;;12.33;5.70;;;;;;;21.27;70.60;99724.38;5075112;28;20196;-75
2023/10/13 13:23:25;;;;;;;12.43;5.80;;;;;;;21.27;71.17;99732.53;5075038;28;20198;-75
2023/10/13 13:25:56;;;;;;;16.23;6.07;;;;;;;21.23;71.69;99722.13;5074567;28;20320;-74
2023/10/13 13:28:28;;;;;;;15.50;6.13;;;;;;;21.29;70.73;99731.19;5074667;28;20647;-74
2023/10/13 13:30:57;;;;;;;15.03;6.40;;;;;;;21.20;72.14;99730.81;5075032;28;20240;-74
2023/10/13 13:33:33;;;;;;;18.63;6.10;;;;;;;21.28;71.24;99720.56;5074765;28;20664;-74
2023/10/13 13:36:01;;;;;;;13.10;6.00;;;;;;;21.26;71.64;99715.38;5074748;28;20278;-74
2023/10/13 13:38:31;;;;;;;12.83;6.83;;;;;;;21.31;71.17;99715.41;5074688;28;20244;-75
2023/10/13 13:41:02;;;;;;;12.13;6.53;;;;;;;21.38;70.65;99713.31;5074655;28;20225;-74
2023/10/13 13:43:38;;;;;;;13.57;6.37;;;;;;;21.41;71.10;99704.63;5073969;28;20245;-65
2023/10/13 13:46:10;;;;;;;19.13;7.17;;;;;;;21.36;71.53;99690.16;5075353;28;20241;-74
2023/10/13 13:48:41;;;;;;;15.80;6.73;;;;;;;21.41;71.97;99695.66;5074376;28;20186;-75
2023/10/13 13:51:19;;;;;;;11.20;6.40;;;;;;;21.46;71.04;99685.66;5072923;28;20309;-74
2023/10/13 13:53:48;;;;;;;14.73;7.00;;;;;;;21.44;71.74;99685.06;5074375;28;20194;-74